sensor_id;sensor_type;location;lat;lon;timestamp;P1;durP1;ratioP1;P2;durP2;ratioP2
43160;SDS011;40968;52.342;5.528;2022-10-20T00:00:42;9.68;;;5.20;;
43160;SDS011;40968;52.342;5.528;2022-10-20T00:03:09;13.85;;;4.80;;
43160;SDS011;40968;52.342;5.528;2022-10-20T00:05:35;16.23;;;5.78;;
43160;SDS011;40968;52.342;5.528;2022-10-20T00:08:02;14.63;;;5.38;;
43160;SDS011;40968;52.342;5.528;2022-10-20T00:10:30;11.50;;;4.75;;
43160;SDS011;40968;52.342;5.528;2022-10-20T00:12:57;15.85;;;5.40;;
43160;SDS011;40968;52.342;5.528;2022-10-20T00:15:23;11.57;;;5.28;;
43160;SDS011;40968;52.342;5.528;2022-10-20T00:17:50;15.18;;;5.30;;
43160;SDS011;40968;52.342;5.528;2022-10-20T00:20:16;17.60;;;6.15;;
43160;SDS011;40968;52.342;5.528;2022-10-20T00:22:43;14.25;;;5.05;;
43160;SDS011;40968;52.342;5.528;2022-10-20T00:25:10;16.33;;;5.40;;
43160;SDS011;40968;52.342;5.528;2022-10-20T00:27:37;16.63;;;5.13;;
43160;SDS011;40968;52.342;5.528;2022-10-20T00:30:04;18.80;;;5.65;;
43160;SDS011;40968;52.342;5.528;2022-10-20T00:32:31;15.32;;;5.20;;
43160;SDS011;40968;52.342;5.528;2022-10-20T00:34:58;13.18;;;5.90;;
43160;SDS011;40968;52.342;5.528;2022-10-20T00:37:25;13.55;;;6.00;;
43160;SDS011;40968;52.342;5.528;2022-10-20T00:39:51;11.88;;;5.47;;
43160;SDS011;40968;52.342;5.528;2022-10-20T00:42:18;15.18;;;5.35;;
43160;SDS011;40968;52.342;5.528;2022-10-20T00:44:50;16.00;;;5.20;;
43160;SDS011;40968;52.342;5.528;2022-10-20T00:47:20;14.63;;;5.65;;
43160;SDS011;40968;52.342;5.528;2022-10-20T00:49:51;14.07;;;5.22;;
43160;SDS011;40968;52.342;5.528;2022-10-20T00:52:19;13.48;;;5.22;;
43160;SDS011;40968;52.342;5.528;2022-10-20T00:54:47;16.33;;;5.07;;
43160;SDS011;40968;52.342;5.528;2022-10-20T00:57:14;16.30;;;5.40;;
43160;SDS011;40968;52.342;5.528;2022-10-20T00:59:41;18.35;;;6.10;;
43160;SDS011;40968;52.342;5.528;2022-10-20T01:02:10;12.45;;;5.25;;
43160;SDS011;40968;52.342;5.528;2022-10-20T01:04:37;15.20;;;5.65;;
43160;SDS011;40968;52.342;5.528;2022-10-20T01:07:04;13.60;;;5.45;;
43160;SDS011;40968;52.342;5.528;2022-10-20T01:09:31;11.93;;;5.18;;
43160;SDS011;40968;52.342;5.528;2022-10-20T01:12:00;11.10;;;5.68;;
43160;SDS011;40968;52.342;5.528;2022-10-20T01:14:34;13.90;;;5.53;;
43160;SDS011;40968;52.342;5.528;2022-10-20T01:17:07;17.23;;;5.00;;
43160;SDS011;40968;52.342;5.528;2022-10-20T01:22:47;18.98;;;5.88;;
43160;SDS011;40968;52.342;5.528;2022-10-20T01:25:38;14.23;;;4.97;;
43160;SDS011;40968;52.342;5.528;2022-10-20T01:28:17;13.82;;;5.57;;
43160;SDS011;40968;52.342;5.528;2022-10-20T01:30:48;15.25;;;5.00;;
43160;SDS011;40968;52.342;5.528;2022-10-20T01:33:24;16.23;;;5.97;;
43160;SDS011;40968;52.342;5.528;2022-10-20T01:35:58;21.90;;;5.13;;
43160;SDS011;40968;52.342;5.528;2022-10-20T01:38:29;16.85;;;5.80;;
43160;SDS011;40968;52.342;5.528;2022-10-20T01:41:07;14.07;;;5.05;;
43160;SDS011;40968;52.342;5.528;2022-10-20T01:43:39;14.30;;;5.63;;
43160;SDS011;40968;52.342;5.528;2022-10-20T01:48:36;18.70;;;6.03;;
43160;SDS011;40968;52.342;5.528;2022-10-20T01:51:04;12.00;;;5.13;;
43160;SDS011;40968;52.342;5.528;2022-10-20T01:53:32;13.85;;;5.60;;
43160;SDS011;40968;52.342;5.528;2022-10-20T01:55:58;13.65;;;5.38;;
43160;SDS011;40968;52.342;5.528;2022-10-20T02:01:31;15.77;;;6.18;;
43160;SDS011;40968;52.342;5.528;2022-10-20T02:04:07;22.23;;;6.10;;
43160;SDS011;40968;52.342;5.528;2022-10-20T02:06:37;15.35;;;5.63;;
43160;SDS011;40968;52.342;5.528;2022-10-20T02:09:14;13.48;;;5.45;;
43160;SDS011;40968;52.342;5.528;2022-10-20T02:11:46;15.52;;;5.50;;
43160;SDS011;40968;52.342;5.528;2022-10-20T02:14:19;17.27;;;6.07;;
43160;SDS011;40968;52.342;5.528;2022-10-20T02:16:48;16.27;;;6.43;;
43160;SDS011;40968;52.342;5.528;2022-10-20T02:19:19;18.08;;;6.30;;
43160;SDS011;40968;52.342;5.528;2022-10-20T02:21:48;21.63;;;6.10;;
43160;SDS011;40968;52.342;5.528;2022-10-20T02:24:17;14.43;;;5.20;;
43160;SDS011;40968;52.342;5.528;2022-10-20T02:26:45;15.52;;;5.50;;
43160;SDS011;40968;52.342;5.528;2022-10-20T02:29:12;22.65;;;5.85;;
43160;SDS011;40968;52.342;5.528;2022-10-20T02:31:42;12.23;;;5.25;;
43160;SDS011;40968;52.342;5.528;2022-10-20T02:34:10;21.40;;;6.28;;
43160;SDS011;40968;52.342;5.528;2022-10-20T02:36:38;15.43;;;5.50;;
43160;SDS011;40968;52.342;5.528;2022-10-20T02:39:06;15.05;;;5.97;;
43160;SDS011;40968;52.342;5.528;2022-10-20T02:41:34;14.90;;;5.25;;
43160;SDS011;40968;52.342;5.528;2022-10-20T02:44:00;25.30;;;5.85;;
43160;SDS011;40968;52.342;5.528;2022-10-20T02:46:27;17.00;;;6.20;;
43160;SDS011;40968;52.342;5.528;2022-10-20T02:48:55;16.67;;;5.47;;
43160;SDS011;40968;52.342;5.528;2022-10-20T02:51:22;12.52;;;5.60;;
43160;SDS011;40968;52.342;5.528;2022-10-20T02:53:48;15.13;;;5.70;;
43160;SDS011;40968;52.342;5.528;2022-10-20T02:56:15;14.90;;;5.65;;
43160;SDS011;40968;52.342;5.528;2022-10-20T02:58:41;14.55;;;5.40;;
43160;SDS011;40968;52.342;5.528;2022-10-20T03:01:08;15.63;;;6.10;;
43160;SDS011;40968;52.342;5.528;2022-10-20T03:03:34;13.95;;;5.30;;
43160;SDS011;40968;52.342;5.528;2022-10-20T03:06:07;14.68;;;5.90;;
43160;SDS011;40968;52.342;5.528;2022-10-20T03:08:34;16.52;;;5.57;;
43160;SDS011;40968;52.342;5.528;2022-10-20T03:11:01;14.50;;;5.32;;
43160;SDS011;40968;52.342;5.528;2022-10-20T03:13:27;13.65;;;5.30;;
43160;SDS011;40968;52.342;5.528;2022-10-20T03:15:54;16.23;;;5.90;;
43160;SDS011;40968;52.342;5.528;2022-10-20T03:18:20;16.73;;;5.97;;
43160;SDS011;40968;52.342;5.528;2022-10-20T03:20:49;21.65;;;6.13;;
43160;SDS011;40968;52.342;5.528;2022-10-20T03:23:17;16.92;;;5.53;;
43160;SDS011;40968;52.342;5.528;2022-10-20T03:25:44;14.55;;;5.88;;
43160;SDS011;40968;52.342;5.528;2022-10-20T03:28:10;14.88;;;5.22;;
43160;SDS011;40968;52.342;5.528;2022-10-20T03:30:37;20.83;;;5.90;;
43160;SDS011;40968;52.342;5.528;2022-10-20T03:33:03;15.27;;;5.85;;
43160;SDS011;40968;52.342;5.528;2022-10-20T03:35:30;16.25;;;6.63;;
43160;SDS011;40968;52.342;5.528;2022-10-20T03:37:57;24.67;;;6.38;;
43160;SDS011;40968;52.342;5.528;2022-10-20T03:40:24;15.50;;;5.68;;
43160;SDS011;40968;52.342;5.528;2022-10-20T03:42:51;16.13;;;5.82;;
43160;SDS011;40968;52.342;5.528;2022-10-20T03:45:18;22.38;;;6.00;;
43160;SDS011;40968;52.342;5.528;2022-10-20T03:47:44;15.52;;;6.07;;
43160;SDS011;40968;52.342;5.528;2022-10-20T03:50:11;18.33;;;6.20;;
43160;SDS011;40968;52.342;5.528;2022-10-20T03:52:37;13.52;;;5.82;;
43160;SDS011;40968;52.342;5.528;2022-10-20T03:55:04;15.77;;;6.28;;
43160;SDS011;40968;52.342;5.528;2022-10-20T03:57:32;19.45;;;5.75;;
43160;SDS011;40968;52.342;5.528;2022-10-20T03:59:59;18.95;;;6.07;;
43160;SDS011;40968;52.342;5.528;2022-10-20T04:02:28;18.45;;;5.68;;
43160;SDS011;40968;52.342;5.528;2022-10-20T04:04:58;18.88;;;5.60;;
43160;SDS011;40968;52.342;5.528;2022-10-20T04:07:25;17.80;;;6.38;;
43160;SDS011;40968;52.342;5.528;2022-10-20T04:09:51;13.55;;;5.63;;
43160;SDS011;40968;52.342;5.528;2022-10-20T04:12:18;22.00;;;5.93;;
43160;SDS011;40968;52.342;5.528;2022-10-20T04:14:46;19.77;;;5.95;;
43160;SDS011;40968;52.342;5.528;2022-10-20T04:17:12;21.80;;;6.28;;
43160;SDS011;40968;52.342;5.528;2022-10-20T04:19:39;19.42;;;6.03;;
43160;SDS011;40968;52.342;5.528;2022-10-20T04:22:06;15.02;;;5.82;;
43160;SDS011;40968;52.342;5.528;2022-10-20T04:24:32;20.27;;;6.30;;
43160;SDS011;40968;52.342;5.528;2022-10-20T04:26:59;15.55;;;6.35;;
43160;SDS011;40968;52.342;5.528;2022-10-20T04:29:26;14.45;;;5.75;;
43160;SDS011;40968;52.342;5.528;2022-10-20T04:31:53;17.45;;;6.18;;
43160;SDS011;40968;52.342;5.528;2022-10-20T04:34:20;13.10;;;5.25;;
43160;SDS011;40968;52.342;5.528;2022-10-20T04:36:47;15.27;;;5.75;;
43160;SDS011;40968;52.342;5.528;2022-10-20T04:39:14;17.42;;;5.90;;
43160;SDS011;40968;52.342;5.528;2022-10-20T04:41:40;18.10;;;6.00;;
43160;SDS011;40968;52.342;5.528;2022-10-20T04:44:07;20.00;;;6.55;;
43160;SDS011;40968;52.342;5.528;2022-10-20T04:46:34;15.20;;;5.68;;
43160;SDS011;40968;52.342;5.528;2022-10-20T04:49:02;17.25;;;6.50;;
43160;SDS011;40968;52.342;5.528;2022-10-20T04:51:29;13.85;;;5.78;;
43160;SDS011;40968;52.342;5.528;2022-10-20T04:53:56;21.60;;;6.00;;
43160;SDS011;40968;52.342;5.528;2022-10-20T04:56:22;18.48;;;7.07;;
43160;SDS011;40968;52.342;5.528;2022-10-20T04:58:49;20.17;;;6.95;;
43160;SDS011;40968;52.342;5.528;2022-10-20T05:01:18;18.63;;;6.60;;
43160;SDS011;40968;52.342;5.528;2022-10-20T05:03:46;17.65;;;6.60;;
43160;SDS011;40968;52.342;5.528;2022-10-20T05:06:15;20.50;;;7.57;;
43160;SDS011;40968;52.342;5.528;2022-10-20T05:08:43;18.85;;;6.60;;
43160;SDS011;40968;52.342;5.528;2022-10-20T05:11:12;20.63;;;6.75;;
43160;SDS011;40968;52.342;5.528;2022-10-20T05:13:39;24.88;;;6.93;;
43160;SDS011;40968;52.342;5.528;2022-10-20T05:16:06;16.45;;;6.05;;
43160;SDS011;40968;52.342;5.528;2022-10-20T05:18:34;18.90;;;6.53;;
43160;SDS011;40968;52.342;5.528;2022-10-20T05:21:03;16.80;;;6.70;;
43160;SDS011;40968;52.342;5.528;2022-10-20T05:23:32;19.17;;;6.18;;
43160;SDS011;40968;52.342;5.528;2022-10-20T05:26:00;19.83;;;6.60;;
43160;SDS011;40968;52.342;5.528;2022-10-20T05:28:27;19.05;;;6.53;;
43160;SDS011;40968;52.342;5.528;2022-10-20T05:30:54;19.67;;;7.07;;
43160;SDS011;40968;52.342;5.528;2022-10-20T05:33:21;18.17;;;6.53;;
43160;SDS011;40968;52.342;5.528;2022-10-20T05:35:48;21.23;;;6.63;;
43160;SDS011;40968;52.342;5.528;2022-10-20T05:38:14;22.38;;;7.05;;
43160;SDS011;40968;52.342;5.528;2022-10-20T05:40:42;22.25;;;7.60;;
43160;SDS011;40968;52.342;5.528;2022-10-20T05:43:09;23.98;;;8.93;;
43160;SDS011;40968;52.342;5.528;2022-10-20T05:45:35;23.38;;;7.90;;
43160;SDS011;40968;52.342;5.528;2022-10-20T05:48:03;21.50;;;7.40;;
43160;SDS011;40968;52.342;5.528;2022-10-20T05:50:29;19.90;;;7.03;;
43160;SDS011;40968;52.342;5.528;2022-10-20T05:52:56;21.23;;;8.05;;
43160;SDS011;40968;52.342;5.528;2022-10-20T05:55:23;19.88;;;7.65;;
43160;SDS011;40968;52.342;5.528;2022-10-20T05:57:51;26.33;;;7.70;;
43160;SDS011;40968;52.342;5.528;2022-10-20T06:00:18;19.55;;;7.05;;
43160;SDS011;40968;52.342;5.528;2022-10-20T06:02:53;20.58;;;7.22;;
43160;SDS011;40968;52.342;5.528;2022-10-20T06:05:20;21.05;;;7.13;;
43160;SDS011;40968;52.342;5.528;2022-10-20T06:07:47;21.80;;;7.90;;
43160;SDS011;40968;52.342;5.528;2022-10-20T06:10:13;20.35;;;6.70;;
43160;SDS011;40968;52.342;5.528;2022-10-20T06:12:40;23.65;;;7.75;;
43160;SDS011;40968;52.342;5.528;2022-10-20T06:15:08;20.25;;;7.47;;
43160;SDS011;40968;52.342;5.528;2022-10-20T06:17:35;23.17;;;8.23;;
43160;SDS011;40968;52.342;5.528;2022-10-20T06:20:01;26.55;;;8.30;;
43160;SDS011;40968;52.342;5.528;2022-10-20T06:22:28;27.35;;;8.13;;
43160;SDS011;40968;52.342;5.528;2022-10-20T06:24:55;21.80;;;7.63;;
43160;SDS011;40968;52.342;5.528;2022-10-20T06:27:21;21.73;;;7.15;;
43160;SDS011;40968;52.342;5.528;2022-10-20T06:29:48;22.50;;;7.15;;
43160;SDS011;40968;52.342;5.528;2022-10-20T06:32:16;21.50;;;7.47;;
43160;SDS011;40968;52.342;5.528;2022-10-20T06:34:42;21.52;;;7.07;;
43160;SDS011;40968;52.342;5.528;2022-10-20T06:37:09;22.73;;;7.32;;
43160;SDS011;40968;52.342;5.528;2022-10-20T06:39:36;23.88;;;7.32;;
43160;SDS011;40968;52.342;5.528;2022-10-20T06:42:02;21.13;;;7.40;;
43160;SDS011;40968;52.342;5.528;2022-10-20T06:44:29;25.70;;;7.85;;
43160;SDS011;40968;52.342;5.528;2022-10-20T06:46:56;20.90;;;7.65;;
43160;SDS011;40968;52.342;5.528;2022-10-20T06:49:24;20.13;;;7.72;;
43160;SDS011;40968;52.342;5.528;2022-10-20T06:51:50;29.30;;;8.88;;
43160;SDS011;40968;52.342;5.528;2022-10-20T06:54:17;21.33;;;7.65;;
43160;SDS011;40968;52.342;5.528;2022-10-20T06:56:43;22.08;;;7.28;;
43160;SDS011;40968;52.342;5.528;2022-10-20T06:59:10;21.63;;;7.20;;
43160;SDS011;40968;52.342;5.528;2022-10-20T07:01:37;21.92;;;7.82;;
43160;SDS011;40968;52.342;5.528;2022-10-20T07:04:05;19.02;;;7.70;;
43160;SDS011;40968;52.342;5.528;2022-10-20T07:06:35;22.75;;;8.27;;
43160;SDS011;40968;52.342;5.528;2022-10-20T07:09:04;19.40;;;7.55;;
43160;SDS011;40968;52.342;5.528;2022-10-20T07:11:32;25.05;;;6.97;;
43160;SDS011;40968;52.342;5.528;2022-10-20T07:13:59;23.08;;;7.65;;
43160;SDS011;40968;52.342;5.528;2022-10-20T07:16:28;19.67;;;7.57;;
43160;SDS011;40968;52.342;5.528;2022-10-20T07:18:56;20.02;;;7.38;;
43160;SDS011;40968;52.342;5.528;2022-10-20T07:21:24;20.50;;;7.30;;
43160;SDS011;40968;52.342;5.528;2022-10-20T07:23:54;16.83;;;6.45;;
43160;SDS011;40968;52.342;5.528;2022-10-20T07:26:21;18.10;;;7.18;;
43160;SDS011;40968;52.342;5.528;2022-10-20T07:28:49;22.15;;;7.75;;
43160;SDS011;40968;52.342;5.528;2022-10-20T07:31:18;23.85;;;8.38;;
43160;SDS011;40968;52.342;5.528;2022-10-20T07:33:45;21.92;;;7.50;;
43160;SDS011;40968;52.342;5.528;2022-10-20T07:36:13;27.80;;;7.85;;
43160;SDS011;40968;52.342;5.528;2022-10-20T07:38:41;21.70;;;7.10;;
43160;SDS011;40968;52.342;5.528;2022-10-20T07:41:10;20.45;;;7.50;;
43160;SDS011;40968;52.342;5.528;2022-10-20T07:43:38;17.73;;;6.80;;
43160;SDS011;40968;52.342;5.528;2022-10-20T07:46:05;21.88;;;7.72;;
43160;SDS011;40968;52.342;5.528;2022-10-20T07:48:32;19.42;;;6.95;;
43160;SDS011;40968;52.342;5.528;2022-10-20T07:51:12;23.42;;;6.50;;
43160;SDS011;40968;52.342;5.528;2022-10-20T07:53:40;22.02;;;7.82;;
43160;SDS011;40968;52.342;5.528;2022-10-20T07:56:07;21.23;;;6.88;;
43160;SDS011;40968;52.342;5.528;2022-10-20T07:58:35;22.35;;;7.60;;
43160;SDS011;40968;52.342;5.528;2022-10-20T08:01:02;20.58;;;7.30;;
43160;SDS011;40968;52.342;5.528;2022-10-20T08:03:28;18.20;;;6.88;;
43160;SDS011;40968;52.342;5.528;2022-10-20T08:05:55;18.95;;;6.97;;
43160;SDS011;40968;52.342;5.528;2022-10-20T08:08:22;23.75;;;7.95;;
43160;SDS011;40968;52.342;5.528;2022-10-20T08:10:48;18.40;;;7.88;;
43160;SDS011;40968;52.342;5.528;2022-10-20T08:13:15;20.65;;;7.63;;
43160;SDS011;40968;52.342;5.528;2022-10-20T08:15:43;22.83;;;7.72;;
43160;SDS011;40968;52.342;5.528;2022-10-20T08:18:09;22.63;;;7.70;;
43160;SDS011;40968;52.342;5.528;2022-10-20T08:20:36;25.95;;;8.07;;
43160;SDS011;40968;52.342;5.528;2022-10-20T08:23:02;25.23;;;8.02;;
43160;SDS011;40968;52.342;5.528;2022-10-20T08:25:29;26.15;;;7.70;;
43160;SDS011;40968;52.342;5.528;2022-10-20T08:27:55;21.40;;;7.32;;
43160;SDS011;40968;52.342;5.528;2022-10-20T08:30:22;24.23;;;8.60;;
43160;SDS011;40968;52.342;5.528;2022-10-20T08:32:50;24.50;;;8.70;;
43160;SDS011;40968;52.342;5.528;2022-10-20T08:35:17;17.90;;;7.28;;
43160;SDS011;40968;52.342;5.528;2022-10-20T08:37:44;22.48;;;7.53;;
43160;SDS011;40968;52.342;5.528;2022-10-20T08:40:11;17.75;;;6.82;;
43160;SDS011;40968;52.342;5.528;2022-10-20T08:42:41;21.15;;;7.70;;
43160;SDS011;40968;52.342;5.528;2022-10-20T08:45:12;22.45;;;7.75;;
43160;SDS011;40968;52.342;5.528;2022-10-20T08:47:40;23.15;;;8.40;;
43160;SDS011;40968;52.342;5.528;2022-10-20T08:50:09;22.33;;;8.07;;
43160;SDS011;40968;52.342;5.528;2022-10-20T08:52:40;22.52;;;8.10;;
43160;SDS011;40968;52.342;5.528;2022-10-20T08:55:08;17.35;;;7.15;;
43160;SDS011;40968;52.342;5.528;2022-10-20T08:57:46;15.85;;;7.10;;
43160;SDS011;40968;52.342;5.528;2022-10-20T09:00:14;22.15;;;7.72;;
43160;SDS011;40968;52.342;5.528;2022-10-20T09:02:42;19.17;;;7.75;;
43160;SDS011;40968;52.342;5.528;2022-10-20T09:05:10;22.95;;;7.45;;
43160;SDS011;40968;52.342;5.528;2022-10-20T09:07:38;22.92;;;7.20;;
43160;SDS011;40968;52.342;5.528;2022-10-20T09:10:08;22.67;;;8.55;;
43160;SDS011;40968;52.342;5.528;2022-10-20T09:12:48;26.50;;;7.80;;
43160;SDS011;40968;52.342;5.528;2022-10-20T09:15:16;20.92;;;7.82;;
43160;SDS011;40968;52.342;5.528;2022-10-20T09:17:45;25.13;;;7.50;;
43160;SDS011;40968;52.342;5.528;2022-10-20T09:20:20;18.13;;;7.37;;
43160;SDS011;40968;52.342;5.528;2022-10-20T09:22:49;27.30;;;7.97;;
43160;SDS011;40968;52.342;5.528;2022-10-20T09:25:16;30.58;;;8.52;;
43160;SDS011;40968;52.342;5.528;2022-10-20T09:27:48;25.00;;;7.20;;
43160;SDS011;40968;52.342;5.528;2022-10-20T09:30:16;26.67;;;7.72;;
43160;SDS011;40968;52.342;5.528;2022-10-20T09:32:44;24.80;;;7.70;;
43160;SDS011;40968;52.342;5.528;2022-10-20T09:35:25;18.20;;;7.57;;
43160;SDS011;40968;52.342;5.528;2022-10-20T09:37:55;20.25;;;8.13;;
43160;SDS011;40968;52.342;5.528;2022-10-20T09:40:26;36.15;;;9.45;;
43160;SDS011;40968;52.342;5.528;2022-10-20T09:42:53;27.80;;;8.43;;
43160;SDS011;40968;52.342;5.528;2022-10-20T09:45:23;23.73;;;8.27;;
43160;SDS011;40968;52.342;5.528;2022-10-20T09:47:54;22.77;;;7.60;;
43160;SDS011;40968;52.342;5.528;2022-10-20T09:50:28;26.40;;;7.93;;
43160;SDS011;40968;52.342;5.528;2022-10-20T09:52:57;22.55;;;8.15;;
43160;SDS011;40968;52.342;5.528;2022-10-20T09:55:26;26.10;;;8.13;;
43160;SDS011;40968;52.342;5.528;2022-10-20T09:57:55;23.98;;;8.15;;
43160;SDS011;40968;52.342;5.528;2022-10-20T10:00:25;20.65;;;7.63;;
43160;SDS011;40968;52.342;5.528;2022-10-20T10:03:13;20.35;;;8.18;;
43160;SDS011;40968;52.342;5.528;2022-10-20T10:05:46;25.37;;;8.53;;
43160;SDS011;40968;52.342;5.528;2022-10-20T10:08:15;28.83;;;8.60;;
43160;SDS011;40968;52.342;5.528;2022-10-20T10:10:43;24.85;;;8.75;;
43160;SDS011;40968;52.342;5.528;2022-10-20T10:13:22;28.75;;;8.15;;
43160;SDS011;40968;52.342;5.528;2022-10-20T10:15:57;27.00;;;8.63;;
43160;SDS011;40968;52.342;5.528;2022-10-20T10:18:25;24.88;;;8.35;;
43160;SDS011;40968;52.342;5.528;2022-10-20T10:20:57;29.15;;;8.43;;
43160;SDS011;40968;52.342;5.528;2022-10-20T10:23:26;28.42;;;8.48;;
43160;SDS011;40968;52.342;5.528;2022-10-20T10:25:54;27.20;;;7.95;;
43160;SDS011;40968;52.342;5.528;2022-10-20T10:28:31;28.02;;;8.60;;
43160;SDS011;40968;52.342;5.528;2022-10-20T10:31:09;23.42;;;8.10;;
43160;SDS011;40968;52.342;5.528;2022-10-20T10:33:45;24.15;;;9.30;;
43160;SDS011;40968;52.342;5.528;2022-10-20T10:36:17;28.23;;;8.52;;
43160;SDS011;40968;52.342;5.528;2022-10-20T10:38:52;21.98;;;7.93;;
43160;SDS011;40968;52.342;5.528;2022-10-20T10:41:21;24.15;;;8.43;;
43160;SDS011;40968;52.342;5.528;2022-10-20T10:43:56;27.35;;;8.15;;
43160;SDS011;40968;52.342;5.528;2022-10-20T10:46:30;22.92;;;8.60;;
43160;SDS011;40968;52.342;5.528;2022-10-20T10:49:10;26.77;;;8.95;;
43160;SDS011;40968;52.342;5.528;2022-10-20T10:51:53;27.45;;;9.02;;
43160;SDS011;40968;52.342;5.528;2022-10-20T10:54:33;26.17;;;9.07;;
43160;SDS011;40968;52.342;5.528;2022-10-20T10:57:14;29.92;;;9.13;;
43160;SDS011;40968;52.342;5.528;2022-10-20T10:59:47;32.08;;;9.45;;
43160;SDS011;40968;52.342;5.528;2022-10-20T11:02:19;24.35;;;9.30;;
43160;SDS011;40968;52.342;5.528;2022-10-20T11:05:09;27.08;;;8.93;;
43160;SDS011;40968;52.342;5.528;2022-10-20T11:07:50;27.50;;;9.70;;
43160;SDS011;40968;52.342;5.528;2022-10-20T11:10:24;23.52;;;9.40;;
43160;SDS011;40968;52.342;5.528;2022-10-20T11:13:07;31.65;;;9.30;;
43160;SDS011;40968;52.342;5.528;2022-10-20T11:21:27;29.27;;;10.70;;
43160;SDS011;40968;52.342;5.528;2022-10-20T11:24:10;30.48;;;10.85;;
43160;SDS011;40968;52.342;5.528;2022-10-20T11:26:46;34.85;;;11.48;;
43160;SDS011;40968;52.342;5.528;2022-10-20T11:29:20;24.27;;;9.63;;
43160;SDS011;40968;52.342;5.528;2022-10-20T11:31:55;28.15;;;9.95;;
43160;SDS011;40968;52.342;5.528;2022-10-20T11:34:32;40.13;;;11.65;;
43160;SDS011;40968;52.342;5.528;2022-10-20T11:37:04;27.73;;;10.13;;
43160;SDS011;40968;52.342;5.528;2022-10-20T11:39:40;35.20;;;12.02;;
43160;SDS011;40968;52.342;5.528;2022-10-20T11:42:15;41.17;;;12.88;;
43160;SDS011;40968;52.342;5.528;2022-10-20T11:44:49;32.08;;;11.35;;
43160;SDS011;40968;52.342;5.528;2022-10-20T11:47:20;31.60;;;11.00;;
43160;SDS011;40968;52.342;5.528;2022-10-20T11:49:52;30.70;;;11.68;;
43160;SDS011;40968;52.342;5.528;2022-10-20T11:52:23;33.13;;;11.68;;
43160;SDS011;40968;52.342;5.528;2022-10-20T11:55:16;37.33;;;10.10;;
43160;SDS011;40968;52.342;5.528;2022-10-20T11:57:54;33.17;;;11.32;;
43160;SDS011;40968;52.342;5.528;2022-10-20T12:03:35;34.58;;;10.80;;
43160;SDS011;40968;52.342;5.528;2022-10-20T12:06:20;36.65;;;10.77;;
43160;SDS011;40968;52.342;5.528;2022-10-20T12:09:19;36.13;;;12.43;;
43160;SDS011;40968;52.342;5.528;2022-10-20T12:12:05;36.65;;;12.02;;
43160;SDS011;40968;52.342;5.528;2022-10-20T12:14:37;32.53;;;11.75;;
43160;SDS011;40968;52.342;5.528;2022-10-20T12:17:14;39.58;;;12.52;;
43160;SDS011;40968;52.342;5.528;2022-10-20T12:19:48;33.00;;;12.13;;
43160;SDS011;40968;52.342;5.528;2022-10-20T12:25:14;31.92;;;12.05;;
43160;SDS011;40968;52.342;5.528;2022-10-20T12:27:45;31.38;;;11.73;;
43160;SDS011;40968;52.342;5.528;2022-10-20T12:33:14;41.50;;;13.65;;
43160;SDS011;40968;52.342;5.528;2022-10-20T12:38:25;32.40;;;13.13;;
43160;SDS011;40968;52.342;5.528;2022-10-20T12:40:57;37.00;;;13.48;;
43160;SDS011;40968;52.342;5.528;2022-10-20T12:43:28;39.45;;;13.50;;
43160;SDS011;40968;52.342;5.528;2022-10-20T12:45:57;43.85;;;14.45;;
43160;SDS011;40968;52.342;5.528;2022-10-20T12:48:29;40.00;;;14.20;;
43160;SDS011;40968;52.342;5.528;2022-10-20T12:51:04;33.70;;;13.00;;
43160;SDS011;40968;52.342;5.528;2022-10-20T12:53:33;37.10;;;13.38;;
43160;SDS011;40968;52.342;5.528;2022-10-20T12:56:03;40.03;;;14.98;;
43160;SDS011;40968;52.342;5.528;2022-10-20T12:58:34;37.13;;;13.95;;
43160;SDS011;40968;52.342;5.528;2022-10-20T13:01:07;42.53;;;15.15;;
43160;SDS011;40968;52.342;5.528;2022-10-20T13:03:45;47.95;;;15.18;;
43160;SDS011;40968;52.342;5.528;2022-10-20T13:09:18;43.25;;;15.10;;
43160;SDS011;40968;52.342;5.528;2022-10-20T13:12:00;40.25;;;14.18;;
43160;SDS011;40968;52.342;5.528;2022-10-20T13:14:43;40.65;;;14.15;;
43160;SDS011;40968;52.342;5.528;2022-10-20T13:17:16;40.55;;;14.90;;
43160;SDS011;40968;52.342;5.528;2022-10-20T13:19:48;46.80;;;15.48;;
43160;SDS011;40968;52.342;5.528;2022-10-20T13:22:39;46.33;;;14.88;;
43160;SDS011;40968;52.342;5.528;2022-10-20T13:25:12;42.40;;;15.90;;
43160;SDS011;40968;52.342;5.528;2022-10-20T13:27:43;40.28;;;15.73;;
43160;SDS011;40968;52.342;5.528;2022-10-20T13:30:18;38.95;;;14.82;;
43160;SDS011;40968;52.342;5.528;2022-10-20T13:32:49;46.20;;;15.43;;
43160;SDS011;40968;52.342;5.528;2022-10-20T13:35:26;39.10;;;15.02;;
43160;SDS011;40968;52.342;5.528;2022-10-20T13:37:58;37.20;;;14.43;;
43160;SDS011;40968;52.342;5.528;2022-10-20T13:40:34;45.42;;;15.45;;
43160;SDS011;40968;52.342;5.528;2022-10-20T13:43:13;51.08;;;15.95;;
43160;SDS011;40968;52.342;5.528;2022-10-20T13:45:54;45.85;;;16.05;;
43160;SDS011;40968;52.342;5.528;2022-10-20T13:48:36;43.95;;;15.38;;
43160;SDS011;40968;52.342;5.528;2022-10-20T13:51:14;45.25;;;13.98;;
43160;SDS011;40968;52.342;5.528;2022-10-20T13:53:45;50.35;;;16.42;;
43160;SDS011;40968;52.342;5.528;2022-10-20T13:56:18;36.83;;;14.43;;
43160;SDS011;40968;52.342;5.528;2022-10-20T13:58:56;32.55;;;13.48;;
43160;SDS011;40968;52.342;5.528;2022-10-20T14:01:26;46.78;;;15.25;;
43160;SDS011;40968;52.342;5.528;2022-10-20T14:03:54;39.95;;;15.38;;
43160;SDS011;40968;52.342;5.528;2022-10-20T14:06:28;47.15;;;16.45;;
43160;SDS011;40968;52.342;5.528;2022-10-20T14:09:08;44.00;;;15.63;;
43160;SDS011;40968;52.342;5.528;2022-10-20T14:11:37;52.83;;;15.65;;
43160;SDS011;40968;52.342;5.528;2022-10-20T14:14:05;48.67;;;15.20;;
43160;SDS011;40968;52.342;5.528;2022-10-20T14:16:38;46.97;;;16.85;;
43160;SDS011;40968;52.342;5.528;2022-10-20T14:19:06;52.55;;;16.80;;
43160;SDS011;40968;52.342;5.528;2022-10-20T14:21:39;38.65;;;15.48;;
43160;SDS011;40968;52.342;5.528;2022-10-20T14:24:07;39.47;;;14.63;;
43160;SDS011;40968;52.342;5.528;2022-10-20T14:26:39;46.47;;;16.58;;
43160;SDS011;40968;52.342;5.528;2022-10-20T14:29:09;43.63;;;15.63;;
43160;SDS011;40968;52.342;5.528;2022-10-20T14:31:38;45.20;;;17.23;;
43160;SDS011;40968;52.342;5.528;2022-10-20T14:34:14;36.03;;;15.68;;
43160;SDS011;40968;52.342;5.528;2022-10-20T14:36:45;46.63;;;16.65;;
43160;SDS011;40968;52.342;5.528;2022-10-20T14:39:18;50.22;;;18.00;;
43160;SDS011;40968;52.342;5.528;2022-10-20T14:41:48;50.67;;;16.88;;
43160;SDS011;40968;52.342;5.528;2022-10-20T14:44:17;44.25;;;16.73;;
43160;SDS011;40968;52.342;5.528;2022-10-20T14:46:49;54.08;;;18.42;;
43160;SDS011;40968;52.342;5.528;2022-10-20T14:49:18;42.35;;;16.75;;
43160;SDS011;40968;52.342;5.528;2022-10-20T14:51:54;51.38;;;16.23;;
43160;SDS011;40968;52.342;5.528;2022-10-20T14:54:26;54.38;;;17.15;;
43160;SDS011;40968;52.342;5.528;2022-10-20T14:56:58;53.42;;;17.70;;
43160;SDS011;40968;52.342;5.528;2022-10-20T14:59:26;43.45;;;16.88;;
43160;SDS011;40968;52.342;5.528;2022-10-20T15:01:57;42.83;;;15.68;;
43160;SDS011;40968;52.342;5.528;2022-10-20T15:04:29;57.28;;;15.77;;
43160;SDS011;40968;52.342;5.528;2022-10-20T15:07:03;44.03;;;15.10;;
43160;SDS011;40968;52.342;5.528;2022-10-20T15:09:32;34.10;;;14.52;;
43160;SDS011;40968;52.342;5.528;2022-10-20T15:12:04;41.80;;;15.98;;
43160;SDS011;40968;52.342;5.528;2022-10-20T15:14:31;40.47;;;14.23;;
43160;SDS011;40968;52.342;5.528;2022-10-20T15:16:59;38.92;;;14.27;;